createdAt,value
2018-09-14T00:02:00.039Z,4.93
2018-09-14T00:04:28.651Z,4.93
2018-09-14T00:06:57.376Z,4.77
2018-09-14T00:09:26.075Z,4.70
2018-09-14T00:11:54.773Z,4.30
2018-09-14T00:14:23.495Z,4.30
2018-09-14T00:16:52.174Z,4.17
2018-09-14T00:19:20.876Z,4.40
2018-09-14T00:21:49.587Z,4.30
2018-09-14T00:24:18.266Z,4.97
2018-09-14T00:26:46.950Z,4.90
2018-09-14T00:29:15.618Z,4.70
2018-09-14T00:31:44.242Z,4.40
2018-09-14T00:34:13.190Z,5.03
2018-09-14T00:36:42.123Z,5.27
2018-09-14T00:39:11.518Z,4.77
2018-09-14T00:41:40.277Z,5.03
2018-09-14T00:44:08.925Z,5.00
2018-09-14T00:46:37.687Z,5.03
2018-09-14T00:49:06.434Z,5.27
2018-09-14T00:51:35.070Z,5.73
2018-09-14T00:54:03.726Z,5.87
2018-09-14T00:56:32.415Z,5.70
2018-09-14T00:59:01.072Z,5.70
2018-09-14T01:01:29.993Z,5.73
2018-09-14T01:03:58.726Z,6.07
2018-09-14T01:06:27.341Z,6.00
2018-09-14T01:08:56.003Z,5.90
2018-09-14T01:11:24.742Z,5.53
2018-09-14T01:13:53.397Z,6.43
2018-09-14T01:16:22.134Z,7.07
2018-09-14T01:18:50.766Z,5.87
2018-09-14T01:21:19.400Z,6.50
2018-09-14T01:23:48.610Z,6.73
2018-09-14T01:26:17.327Z,6.83
2018-09-14T01:31:36.686Z,7.20
2018-09-14T01:34:05.383Z,7.90
2018-09-14T01:36:34.006Z,7.87
2018-09-14T01:39:02.776Z,7.93
2018-09-14T01:41:31.402Z,8.30
2018-09-14T01:44:00.029Z,9.47
2018-09-14T01:46:28.713Z,9.50
2018-09-14T01:48:57.358Z,10.37
2018-09-14T01:51:26.647Z,10.93
2018-09-14T01:53:55.301Z,10.50
2018-09-14T01:56:23.929Z,11.10
2018-09-14T01:58:52.657Z,11.47
2018-09-14T02:01:21.669Z,12.17
2018-09-14T02:03:50.459Z,13.27
2018-09-14T02:06:19.207Z,13.00
2018-09-14T02:08:47.844Z,13.50
2018-09-14T02:11:16.964Z,12.90
2018-09-14T02:13:45.637Z,13.57
2018-09-14T02:16:14.328Z,13.47
2018-09-14T02:18:42.958Z,13.37
2018-09-14T02:21:11.877Z,13.20
2018-09-14T02:23:40.529Z,12.80
2018-09-14T02:26:09.182Z,13.43
2018-09-14T02:28:37.862Z,13.33
2018-09-14T02:31:06.564Z,13.27
2018-09-14T02:33:35.406Z,13.37
2018-09-14T02:36:04.178Z,13.70
2018-09-14T02:38:33.111Z,13.37
2018-09-14T02:41:02.332Z,13.23
2018-09-14T02:43:31.036Z,13.93
2018-09-14T02:45:59.673Z,13.93
2018-09-14T02:48:28.886Z,14.90
2018-09-14T02:50:58.530Z,14.77
2018-09-14T02:53:27.279Z,14.37
2018-09-14T02:55:56.257Z,14.90
2018-09-14T02:58:25.125Z,14.50
2018-09-14T03:00:53.820Z,12.97
2018-09-14T03:03:22.530Z,13.13
2018-09-14T03:05:51.320Z,13.17
2018-09-14T03:08:20.002Z,13.30
2018-09-14T03:10:48.729Z,13.30
2018-09-14T03:13:17.977Z,13.80
2018-09-14T03:15:46.933Z,13.43
2018-09-14T03:18:15.574Z,13.73
2018-09-14T03:20:44.264Z,13.70
2018-09-14T03:23:12.948Z,14.43
2018-09-14T03:25:41.762Z,14.30
2018-09-14T03:28:10.417Z,13.47
2018-09-14T03:30:39.162Z,13.93
2018-09-14T03:33:08.039Z,13.57
2018-09-14T03:35:36.641Z,13.47
2018-09-14T03:38:05.305Z,13.90
2018-09-14T03:40:33.942Z,13.50
2018-09-14T03:43:02.682Z,13.27
2018-09-14T03:45:31.319Z,15.17
2018-09-14T03:48:00.182Z,15.03
2018-09-14T03:50:28.862Z,13.83
2018-09-14T03:52:57.489Z,15.13
2018-09-14T03:55:27.005Z,14.07
2018-09-14T03:57:55.621Z,13.67
2018-09-14T04:00:24.344Z,10.70
2018-09-14T04:02:53.017Z,10.97
2018-09-14T04:05:21.730Z,11.53
2018-09-14T04:07:50.674Z,11.83
2018-09-14T04:10:19.530Z,11.57
2018-09-14T04:12:48.233Z,11.47
2018-09-14T04:15:16.929Z,11.07
2018-09-14T04:17:45.616Z,12.03
2018-09-14T04:20:14.242Z,11.57
2018-09-14T04:22:43.102Z,12.10
2018-09-14T04:25:11.793Z,10.90
2018-09-14T04:27:40.519Z,12.43
2018-09-14T04:30:09.267Z,12.17
2018-09-14T04:32:37.937Z,11.73
2018-09-14T04:35:06.583Z,12.20
2018-09-14T04:37:35.270Z,11.57
2018-09-14T04:40:04.313Z,11.97
2018-09-14T04:42:33.018Z,11.30
2018-09-14T04:45:01.963Z,12.13
2018-09-14T04:47:30.739Z,12.10
2018-09-14T04:49:59.523Z,11.60
2018-09-14T04:52:28.337Z,11.70
2018-09-14T04:54:56.982Z,11.90
2018-09-14T04:57:25.681Z,12.60
2018-09-14T04:59:54.465Z,13.90
2018-09-14T05:02:23.151Z,13.80
2018-09-14T05:04:52.224Z,12.73
2018-09-14T05:07:21.006Z,13.47
2018-09-14T05:09:50.258Z,14.57
2018-09-14T05:12:18.972Z,14.57
2018-09-14T05:14:47.741Z,15.70
2018-09-14T05:17:16.424Z,16.57
2018-09-14T05:19:45.140Z,14.63
2018-09-14T05:22:13.846Z,14.90
2018-09-14T05:24:42.610Z,14.67
2018-09-14T05:27:11.817Z,14.43
2018-09-14T05:29:40.630Z,15.83
2018-09-14T05:32:09.259Z,15.67
2018-09-14T05:34:38.844Z,15.47
2018-09-14T05:37:07.478Z,15.23
2018-09-14T05:39:36.460Z,16.00
2018-09-14T05:42:05.221Z,17.30
2018-09-14T05:44:33.878Z,17.27
2018-09-14T05:47:02.677Z,16.83
2018-09-14T05:49:31.421Z,16.50
2018-09-14T05:52:00.202Z,17.27
2018-09-14T05:54:28.894Z,17.07
2018-09-14T05:56:57.789Z,16.27
2018-09-14T05:59:26.457Z,15.40
2018-09-14T06:01:55.096Z,14.97
2018-09-14T06:04:23.826Z,14.27
2018-09-14T06:06:52.513Z,14.50
2018-09-14T06:09:21.131Z,16.03
2018-09-14T06:11:49.808Z,15.77
2018-09-14T06:14:18.529Z,15.63
2018-09-14T06:16:47.295Z,14.67
2018-09-14T06:19:15.978Z,16.47
2018-09-14T06:21:44.622Z,14.93
2018-09-14T06:24:13.500Z,14.07
2018-09-14T06:26:42.273Z,14.97
2018-09-14T06:29:10.924Z,14.07
2018-09-14T06:31:39.678Z,14.27
2018-09-14T06:34:08.311Z,13.47
2018-09-14T06:36:37.006Z,12.73
2018-09-14T06:39:09.007Z,13.67
2018-09-14T06:41:37.657Z,13.33
2018-09-14T06:44:06.533Z,14.23
2018-09-14T06:46:35.185Z,14.37
2018-09-14T06:49:05.396Z,14.70
2018-09-14T06:51:34.925Z,14.13
2018-09-14T06:54:03.892Z,15.60
2018-09-14T06:56:33.441Z,16.33
2018-09-14T06:59:02.186Z,15.00
2018-09-14T07:01:30.874Z,14.63
2018-09-14T07:03:59.898Z,13.20
2018-09-14T07:06:28.600Z,12.80
2018-09-14T07:08:57.310Z,13.10
2018-09-14T07:11:26.785Z,13.13
2018-09-14T07:13:55.657Z,13.40
2018-09-14T07:16:24.274Z,14.20
2018-09-14T07:18:52.934Z,14.23
2018-09-14T07:21:21.622Z,14.13
2018-09-14T07:23:50.522Z,15.17
2018-09-14T07:26:19.141Z,13.90
2018-09-14T07:28:47.875Z,13.50
2018-09-14T07:31:16.892Z,14.00
2018-09-14T07:33:46.465Z,14.73
2018-09-14T07:36:16.006Z,14.73
2018-09-14T07:38:44.677Z,14.07
2018-09-14T07:41:13.654Z,14.00
2018-09-14T07:43:42.334Z,13.77
2018-09-14T07:46:11.234Z,12.83
2018-09-14T07:48:39.866Z,12.47
2018-09-14T07:51:09.222Z,13.43
2018-09-14T07:53:38.019Z,13.00
2018-09-14T07:56:07.143Z,12.90
2018-09-14T07:58:35.825Z,13.47
2018-09-14T08:01:04.523Z,12.83
2018-09-14T08:03:33.377Z,12.70
2018-09-14T08:06:02.154Z,12.10
2018-09-14T08:08:31.061Z,10.90
2018-09-14T08:10:59.750Z,11.07
2018-09-14T08:13:28.474Z,11.20
2018-09-14T08:15:57.863Z,11.70
2018-09-14T08:18:26.513Z,11.30
2018-09-14T08:20:55.142Z,11.57
2018-09-14T08:23:23.827Z,11.60
2018-09-14T08:25:52.759Z,12.57
2018-09-14T08:28:21.427Z,10.57
2018-09-14T08:30:50.149Z,10.83
2018-09-14T08:33:18.903Z,9.83
2018-09-14T08:35:48.030Z,10.00
2018-09-14T08:38:16.903Z,9.40
2018-09-14T08:40:45.635Z,10.00
2018-09-14T08:43:14.390Z,9.53
2018-09-14T08:45:43.073Z,10.80
2018-09-14T08:48:12.610Z,10.73
2018-09-14T08:50:42.137Z,9.43
2018-09-14T08:53:10.901Z,9.23
2018-09-14T08:55:39.793Z,9.30
2018-09-14T08:58:08.605Z,9.20
2018-09-14T09:00:37.399Z,9.53
2018-09-14T09:03:07.087Z,8.70
2018-09-14T09:05:36.898Z,9.30
2018-09-14T09:08:05.595Z,8.47
2018-09-14T09:10:34.381Z,8.80
2018-09-14T09:13:03.830Z,8.90
2018-09-14T09:15:32.505Z,10.10
2018-09-14T09:18:01.169Z,9.53
2018-09-14T09:20:30.629Z,10.07
2018-09-14T09:22:59.622Z,11.37
2018-09-14T09:25:28.334Z,10.87
2018-09-14T09:27:56.977Z,11.40
2018-09-14T09:30:25.653Z,11.50
2018-09-14T09:32:54.387Z,12.77
2018-09-14T09:35:23.135Z,12.63
2018-09-14T09:37:51.873Z,10.80
2018-09-14T09:40:20.575Z,11.03
2018-09-14T09:42:49.229Z,11.77
2018-09-14T09:45:18.025Z,12.50
2018-09-14T09:47:46.660Z,12.17
2018-09-14T09:50:15.385Z,12.33
2018-09-14T09:52:44.138Z,14.10
2018-09-14T09:55:12.771Z,15.67
2018-09-14T09:57:42.318Z,16.73
2018-09-14T10:00:16.373Z,16.43
2018-09-14T10:02:50.267Z,15.60
2018-09-14T10:05:24.222Z,15.57
2018-09-14T10:07:52.898Z,14.00
2018-09-14T10:10:21.598Z,11.77
2018-09-14T10:12:50.278Z,9.90
2018-09-14T10:15:19.610Z,10.00
2018-09-14T10:17:48.328Z,10.33
2018-09-14T10:20:17.033Z,10.40
2018-09-14T10:22:45.665Z,10.77
2018-09-14T10:25:14.910Z,10.20
2018-09-14T10:27:43.549Z,10.17
2018-09-14T10:30:12.233Z,10.33
2018-09-14T10:32:41.363Z,11.00
2018-09-14T10:35:11.139Z,12.23
2018-09-14T10:37:39.964Z,11.23
2018-09-14T10:40:09.524Z,10.73
2018-09-14T10:42:38.336Z,12.23
2018-09-14T10:45:07.308Z,12.10
2018-09-14T10:47:35.947Z,12.60
2018-09-14T10:50:05.365Z,14.40
2018-09-14T10:52:34.185Z,14.73
2018-09-14T10:55:02.915Z,16.77
2018-09-14T10:57:31.722Z,15.77
2018-09-14T11:00:00.365Z,17.07
2018-09-14T11:02:29.804Z,16.53
2018-09-14T11:04:58.438Z,15.53
2018-09-14T11:07:27.106Z,15.53
2018-09-14T11:09:56.009Z,15.83
2018-09-14T11:12:24.968Z,16.73
2018-09-14T11:14:53.805Z,17.33
2018-09-14T11:17:22.498Z,16.90
2018-09-14T11:19:51.127Z,17.37
2018-09-14T11:22:19.799Z,17.60
2018-09-14T11:24:48.720Z,17.53
2018-09-14T11:27:17.323Z,17.87
2018-09-14T11:29:45.962Z,17.17
2018-09-14T11:32:14.654Z,18.13
2018-09-14T11:34:43.570Z,19.83
2018-09-14T11:37:12.477Z,18.27
2018-09-14T11:39:41.135Z,18.07
2018-09-14T11:42:09.793Z,18.40
2018-09-14T11:44:38.430Z,18.13
2018-09-14T11:47:07.394Z,18.30
2018-09-14T11:49:36.060Z,17.63
2018-09-14T11:52:04.743Z,18.80
2018-09-14T11:54:33.411Z,16.33
2018-09-14T11:57:02.083Z,17.43
2018-09-14T11:59:30.757Z,18.40
2018-09-14T12:01:59.767Z,18.00
2018-09-14T12:04:28.437Z,21.50
2018-09-14T12:06:57.087Z,16.93
2018-09-14T12:09:25.751Z,17.60
2018-09-14T12:11:54.457Z,17.73
2018-09-14T12:14:23.102Z,16.60
2018-09-14T12:16:51.757Z,18.80
2018-09-14T12:19:20.401Z,19.37
2018-09-14T12:21:49.034Z,17.50
2018-09-14T12:24:17.734Z,14.73
2018-09-14T12:26:46.391Z,16.17
2018-09-14T12:29:15.072Z,15.87
2018-09-14T12:31:43.761Z,16.33
2018-09-14T12:34:12.480Z,14.50
2018-09-14T12:36:41.163Z,15.07
2018-09-14T12:39:10.554Z,15.60
2018-09-14T12:41:39.462Z,17.13
2018-09-14T12:44:08.371Z,16.20
2018-09-14T12:46:37.001Z,14.30
2018-09-14T12:49:05.779Z,11.77
2018-09-14T12:51:34.485Z,12.93
2018-09-14T12:54:03.255Z,10.80
2018-09-14T12:56:32.038Z,10.97
2018-09-14T12:59:00.985Z,8.83
2018-09-14T13:01:29.941Z,10.40
2018-09-14T13:03:58.575Z,11.43
2018-09-14T13:06:27.233Z,11.53
2018-09-14T13:08:55.941Z,14.10
2018-09-14T13:11:24.608Z,13.03
2018-09-14T13:13:53.324Z,13.30
2018-09-14T13:16:21.987Z,13.47
2018-09-14T13:18:50.603Z,13.23
2018-09-14T13:21:19.249Z,13.80
2018-09-14T13:23:47.906Z,13.27
2018-09-14T13:26:16.647Z,13.73
2018-09-14T13:28:45.306Z,13.40
2018-09-14T13:31:13.939Z,13.60
2018-09-14T13:33:42.621Z,14.57
2018-09-14T13:36:11.402Z,14.60
2018-09-14T13:38:40.106Z,15.17
2018-09-14T13:41:08.766Z,15.93
2018-09-14T13:43:37.462Z,15.10
2018-09-14T13:46:06.130Z,15.23
2018-09-14T13:48:34.765Z,14.63
2018-09-14T13:51:03.487Z,15.43
2018-09-14T13:53:32.118Z,15.13
2018-09-14T13:56:00.755Z,14.03
2018-09-14T13:58:29.480Z,15.17
2018-09-14T14:00:58.126Z,15.70
2018-09-14T14:03:26.808Z,15.20
2018-09-14T14:05:55.448Z,16.00
2018-09-14T14:08:24.076Z,16.50
2018-09-14T14:10:52.710Z,15.53
2018-09-14T14:13:21.350Z,16.40
2018-09-14T14:15:50.062Z,15.77
2018-09-14T14:18:18.729Z,14.93
2018-09-14T14:20:47.401Z,14.20
2018-09-14T14:23:16.158Z,15.17
2018-09-14T14:25:44.875Z,13.80
2018-09-14T14:28:13.565Z,15.13
2018-09-14T14:30:42.206Z,14.50
2018-09-14T14:33:10.903Z,15.13
2018-09-14T14:35:39.598Z,15.57
2018-09-14T14:38:08.335Z,13.80
2018-09-14T14:40:37.061Z,15.57
2018-09-14T14:43:05.794Z,16.33
2018-09-14T14:45:34.491Z,14.53
2018-09-14T14:48:03.162Z,14.50
2018-09-14T14:50:31.794Z,16.03
2018-09-14T14:53:00.485Z,14.80
2018-09-14T14:55:29.215Z,15.17
2018-09-14T14:57:57.875Z,16.10
2018-09-14T15:00:26.630Z,16.33
2018-09-14T15:02:55.275Z,17.63
2018-09-14T15:05:23.962Z,16.87
2018-09-14T15:07:52.573Z,16.93
2018-09-14T15:10:21.422Z,16.90
2018-09-14T15:12:50.056Z,16.93
2018-09-14T15:15:18.694Z,16.83
2018-09-14T15:17:47.487Z,17.30
2018-09-14T15:20:16.165Z,17.77
2018-09-14T15:22:44.826Z,18.07
2018-09-14T15:25:13.565Z,19.67
2018-09-14T15:27:42.385Z,19.33
2018-09-14T15:30:11.102Z,18.77
2018-09-14T15:32:39.757Z,20.27
2018-09-14T15:35:08.479Z,20.83
2018-09-14T15:37:37.129Z,20.80
2018-09-14T15:40:06.007Z,22.87
2018-09-14T15:42:34.681Z,23.83
2018-09-14T15:45:03.306Z,25.23
2018-09-14T15:47:31.953Z,25.00
2018-09-14T15:50:00.593Z,25.47
2018-09-14T15:52:29.242Z,25.87
2018-09-14T15:54:57.930Z,28.13
2018-09-14T15:57:26.574Z,25.93
2018-09-14T15:59:55.206Z,25.47
2018-09-14T16:02:23.995Z,24.33
2018-09-14T16:04:52.701Z,25.57
2018-09-14T16:07:21.407Z,25.93
2018-09-14T16:09:50.041Z,26.13
2018-09-14T16:12:18.682Z,25.70
2018-09-14T16:14:47.334Z,27.70
2018-09-14T16:17:15.963Z,26.57
2018-09-14T16:19:44.642Z,23.83
2018-09-14T16:22:13.338Z,24.23
2018-09-14T16:24:42.002Z,23.67
2018-09-14T16:27:10.742Z,24.60
2018-09-14T16:29:39.368Z,25.37
2018-09-14T16:32:08.042Z,24.13
2018-09-14T16:34:36.674Z,25.87
2018-09-14T16:37:05.664Z,25.53
2018-09-14T16:39:34.400Z,27.20
2018-09-14T16:42:03.403Z,28.87
2018-09-14T16:44:32.141Z,27.43
2018-09-14T16:47:00.769Z,27.30
2018-09-14T16:49:29.393Z,27.43
2018-09-14T16:51:58.286Z,27.57
2018-09-14T16:54:27.013Z,25.40
2018-09-14T16:56:55.674Z,25.57
2018-09-14T16:59:24.325Z,25.77
2018-09-14T17:01:53.062Z,26.47
2018-09-14T17:04:21.926Z,26.50
2018-09-14T17:06:50.707Z,25.53
2018-09-14T17:09:19.522Z,26.47
2018-09-14T17:11:48.210Z,25.30
2018-09-14T17:14:16.898Z,26.83
2018-09-14T17:16:45.529Z,28.87
2018-09-14T17:19:14.213Z,29.30
2018-09-14T17:21:42.941Z,28.93
2018-09-14T17:24:11.661Z,28.10
2018-09-14T17:26:40.281Z,27.60
2018-09-14T17:29:09.577Z,26.80
2018-09-14T17:31:40.009Z,28.40
2018-09-14T17:34:08.676Z,28.57
2018-09-14T17:36:37.394Z,26.93
2018-09-14T17:39:07.858Z,27.37
2018-09-14T17:41:36.517Z,27.47
2018-09-14T17:44:05.231Z,22.93
2018-09-14T17:46:33.887Z,23.57
2018-09-14T17:49:02.694Z,22.10
2018-09-14T17:51:31.407Z,21.47
2018-09-14T17:54:00.130Z,23.37
2018-09-14T17:56:30.886Z,25.07
2018-09-14T17:58:59.559Z,24.33
2018-09-14T18:01:28.217Z,23.93
2018-09-14T18:03:59.205Z,21.87
2018-09-14T18:06:31.211Z,22.33
2018-09-14T18:09:00.894Z,20.73
2018-09-14T18:11:29.559Z,20.03
2018-09-14T18:13:58.268Z,20.77
2018-09-14T18:16:27.063Z,20.73
2018-09-14T18:18:55.908Z,21.57
2018-09-14T18:21:24.578Z,23.53
2018-09-14T18:23:53.243Z,22.37
2018-09-14T18:26:22.070Z,21.93
2018-09-14T18:28:50.758Z,22.90
2018-09-14T18:31:19.531Z,20.30
2018-09-14T18:33:48.272Z,21.33
2018-09-14T18:36:17.079Z,44.17
2018-09-14T18:38:45.919Z,83.50
2018-09-14T18:41:14.631Z,57.30
2018-09-14T18:43:43.396Z,49.27
2018-09-14T18:46:12.064Z,86.13
2018-09-14T18:48:40.749Z,39.67
2018-09-14T18:51:09.434Z,24.63
2018-09-14T18:53:38.103Z,22.70
2018-09-14T18:56:07.006Z,17.50
2018-09-14T18:58:35.690Z,19.97
2018-09-14T19:01:04.379Z,48.30
2018-09-14T19:03:34.074Z,41.47
2018-09-14T19:06:02.714Z,36.03
2018-09-14T19:08:31.387Z,42.93
2018-09-14T19:11:00.084Z,27.53
2018-09-14T19:13:28.799Z,96.80
2018-09-14T19:15:57.706Z,109.77
2018-09-14T19:18:27.017Z,29.00
2018-09-14T19:20:55.662Z,27.40
2018-09-14T19:23:24.308Z,40.40
2018-09-14T19:25:52.983Z,22.57
2018-09-14T19:28:21.822Z,16.73
2018-09-14T19:30:50.486Z,17.63
2018-09-14T19:33:19.261Z,18.90
2018-09-14T19:35:47.985Z,17.83
2018-09-14T19:38:16.644Z,17.57
2018-09-14T19:40:45.346Z,19.23
2018-09-14T19:43:14.098Z,22.47
2018-09-14T19:45:42.758Z,21.83
2018-09-14T19:48:11.410Z,26.33
2018-09-14T19:50:40.049Z,44.27
2018-09-14T19:53:08.783Z,22.90
2018-09-14T19:55:37.434Z,24.63
2018-09-14T19:58:06.098Z,19.37
2018-09-14T20:00:34.813Z,21.27
2018-09-14T20:03:03.501Z,20.17
2018-09-14T20:05:32.198Z,19.77
2018-09-14T20:08:00.830Z,15.83
2018-09-14T20:10:29.494Z,16.23
2018-09-14T20:12:58.202Z,16.00
2018-09-14T20:15:26.837Z,17.80
2018-09-14T20:17:55.621Z,18.13
2018-09-14T20:20:24.444Z,16.63
2018-09-14T20:22:53.137Z,14.73
2018-09-14T20:25:23.533Z,11.00
2018-09-14T20:27:52.169Z,11.47
2018-09-14T20:30:20.825Z,10.73
2018-09-14T20:32:49.518Z,9.80
2018-09-14T20:35:18.205Z,10.43
2018-09-14T20:37:46.822Z,10.83
2018-09-14T20:40:15.516Z,11.07
2018-09-14T20:42:44.177Z,9.87
2018-09-14T20:45:12.812Z,9.40
2018-09-14T20:47:41.801Z,9.07
2018-09-14T20:50:10.541Z,8.87
2018-09-14T20:52:39.229Z,9.33
2018-09-14T20:55:07.953Z,8.23
2018-09-14T20:57:36.652Z,8.87
2018-09-14T21:00:05.639Z,8.47
2018-09-14T21:02:34.302Z,7.67
2018-09-14T21:05:03.003Z,7.77
2018-09-14T21:07:31.649Z,7.47
2018-09-14T21:10:00.276Z,7.50
2018-09-14T21:12:28.972Z,7.47
2018-09-14T21:14:57.602Z,7.93
2018-09-14T21:17:26.319Z,7.73
2018-09-14T21:19:54.953Z,9.30
2018-09-14T21:22:23.644Z,10.00
2018-09-14T21:24:52.377Z,10.37
2018-09-14T21:27:21.087Z,12.50
2018-09-14T21:29:49.799Z,14.17
2018-09-14T21:32:18.451Z,13.80
2018-09-14T21:34:47.112Z,13.30
2018-09-14T21:37:15.785Z,12.47
2018-09-14T21:39:44.429Z,10.53
2018-09-14T21:42:13.102Z,9.70
2018-09-14T21:44:42.038Z,7.57
2018-09-14T21:47:12.625Z,7.70
2018-09-14T21:49:41.329Z,8.33
2018-09-14T21:52:09.957Z,7.50
2018-09-14T21:54:38.589Z,7.63
2018-09-14T21:57:07.330Z,8.53
2018-09-14T21:59:35.994Z,7.43
2018-09-14T22:02:04.744Z,8.53
2018-09-14T22:04:33.450Z,9.50
2018-09-14T22:07:02.120Z,9.60
2018-09-14T22:09:30.788Z,9.37
2018-09-14T22:11:59.541Z,9.57
2018-09-14T22:14:28.203Z,9.70
2018-09-14T22:16:56.854Z,9.30
2018-09-14T22:19:25.618Z,9.43
2018-09-14T22:21:54.395Z,9.37
2018-09-14T22:24:23.069Z,10.47
2018-09-14T22:26:51.765Z,8.37
2018-09-14T22:29:20.445Z,8.30
2018-09-14T22:31:49.117Z,9.20
2018-09-14T22:34:17.839Z,8.53
2018-09-14T22:36:46.546Z,9.53
2018-09-14T22:39:15.346Z,8.60
2018-09-14T22:41:44.068Z,8.47
2018-09-14T22:44:12.745Z,9.00
2018-09-14T22:46:41.392Z,9.20
2018-09-14T22:49:10.095Z,9.50
2018-09-14T22:51:38.784Z,10.00
2018-09-14T22:54:07.450Z,9.73
2018-09-14T22:56:36.149Z,10.80
2018-09-14T22:59:04.993Z,11.20
2018-09-14T23:01:34.694Z,10.67
2018-09-14T23:04:03.793Z,12.90
2018-09-14T23:06:33.273Z,12.90
2018-09-14T23:09:02.071Z,12.43
2018-09-14T23:11:31.022Z,12.23
2018-09-14T23:13:59.920Z,12.57
2018-09-14T23:16:28.805Z,12.90
2018-09-14T23:18:57.593Z,13.03
2018-09-14T23:21:26.856Z,13.40
2018-09-14T23:23:55.597Z,13.23
2018-09-14T23:26:25.820Z,12.87
2018-09-14T23:28:54.461Z,13.77
2018-09-14T23:31:23.149Z,13.47
2018-09-14T23:33:51.807Z,13.20
2018-09-14T23:36:20.535Z,13.00
2018-09-14T23:38:49.172Z,14.20
2018-09-14T23:41:17.823Z,13.10
2018-09-14T23:43:46.566Z,13.70
2018-09-14T23:46:15.350Z,13.90
2018-09-14T23:48:44.012Z,14.30
2018-09-14T23:51:12.698Z,14.07
2018-09-14T23:53:41.365Z,14.73
2018-09-14T23:56:10.055Z,14.23
2018-09-14T23:58:38.689Z,14.43
